sensor_id;sensor_type;location;lat;lon;timestamp;pressure;altitude;pressure_sealevel;temperature;humidity
21096;BME280;10706;49.036;12.112;2023-05-07T00:00:37;97712.38;;;11.25;93.91
21096;BME280;10706;49.036;12.112;2023-05-07T00:03:03;97704.38;;;11.25;94.31
21096;BME280;10706;49.036;12.112;2023-05-07T00:05:29;97706.56;;;11.28;93.26
21096;BME280;10706;49.036;12.112;2023-05-07T00:07:55;97708.63;;;11.38;93.18
21096;BME280;10706;49.036;12.112;2023-05-07T00:10:21;97703.84;;;11.40;92.29
21096;BME280;10706;49.036;12.112;2023-05-07T00:12:47;97704.81;;;11.51;91.38
21096;BME280;10706;49.036;12.112;2023-05-07T00:15:12;97712.53;;;11.64;90.49
21096;BME280;10706;49.036;12.112;2023-05-07T00:17:38;97706.28;;;11.76;90.14
21096;BME280;10706;49.036;12.112;2023-05-07T00:20:05;97711.75;;;11.98;88.11
21096;BME280;10706;49.036;12.112;2023-05-07T00:22:31;97707.69;;;11.95;88.13
21096;BME280;10706;49.036;12.112;2023-05-07T00:24:58;97702.88;;;11.97;88.07
21096;BME280;10706;49.036;12.112;2023-05-07T00:27:25;97707.53;;;12.02;87.84
21096;BME280;10706;49.036;12.112;2023-05-07T00:29:51;97704.84;;;11.85;88.47
21096;BME280;10706;49.036;12.112;2023-05-07T00:32:17;97709.47;;;11.90;88.16
21096;BME280;10706;49.036;12.112;2023-05-07T00:34:43;97708.50;;;11.96;87.89
21096;BME280;10706;49.036;12.112;2023-05-07T00:37:09;97709.78;;;11.93;87.74
21096;BME280;10706;49.036;12.112;2023-05-07T00:39:35;97711.22;;;11.84;87.88
21096;BME280;10706;49.036;12.112;2023-05-07T00:42:01;97707.94;;;11.94;87.64
21096;BME280;10706;49.036;12.112;2023-05-07T00:44:28;97716.66;;;11.89;88.06
21096;BME280;10706;49.036;12.112;2023-05-07T00:46:57;97712.28;;;11.83;87.98
21096;BME280;10706;49.036;12.112;2023-05-07T00:49:29;97713.56;;;11.80;88.08
21096;BME280;10706;49.036;12.112;2023-05-07T00:51:59;97709.53;;;11.78;88.12
21096;BME280;10706;49.036;12.112;2023-05-07T00:54:26;97714.97;;;11.66;88.86
21096;BME280;10706;49.036;12.112;2023-05-07T00:56:52;97714.06;;;11.60;88.57
21096;BME280;10706;49.036;12.112;2023-05-07T00:59:18;97719.63;;;11.42;89.41
21096;BME280;10706;49.036;12.112;2023-05-07T01:01:44;97719.13;;;11.28;90.05
21096;BME280;10706;49.036;12.112;2023-05-07T01:04:10;97718.13;;;11.17;91.22
21096;BME280;10706;49.036;12.112;2023-05-07T01:06:36;97723.94;;;11.14;90.97
21096;BME280;10706;49.036;12.112;2023-05-07T01:09:03;97726.19;;;11.05;91.60
21096;BME280;10706;49.036;12.112;2023-05-07T01:11:30;97718.03;;;11.12;92.39
21096;BME280;10706;49.036;12.112;2023-05-07T01:13:58;97730.59;;;11.12;92.09
21096;BME280;10706;49.036;12.112;2023-05-07T01:16:24;97716.50;;;11.16;91.24
21096;BME280;10706;49.036;12.112;2023-05-07T01:18:50;97726.44;;;11.04;92.14
21096;BME280;10706;49.036;12.112;2023-05-07T01:21:17;97718.31;;;10.99;92.42
21096;BME280;10706;49.036;12.112;2023-05-07T01:23:44;97720.78;;;10.88;92.45
21096;BME280;10706;49.036;12.112;2023-05-07T01:26:11;97728.72;;;10.83;92.87
21096;BME280;10706;49.036;12.112;2023-05-07T01:28:37;97726.03;;;10.83;93.58
21096;BME280;10706;49.036;12.112;2023-05-07T01:31:03;97724.75;;;10.86;93.62
21096;BME280;10706;49.036;12.112;2023-05-07T01:33:34;97722.81;;;10.81;93.11
21096;BME280;10706;49.036;12.112;2023-05-07T01:36:01;97717.34;;;10.76;93.67
21096;BME280;10706;49.036;12.112;2023-05-07T01:38:29;97714.44;;;10.78;94.02
21096;BME280;10706;49.036;12.112;2023-05-07T01:40:55;97708.63;;;10.81;93.86
21096;BME280;10706;49.036;12.112;2023-05-07T01:43:21;97709.44;;;10.81;93.98
21096;BME280;10706;49.036;12.112;2023-05-07T01:45:47;97709.28;;;10.88;93.48
21096;BME280;10706;49.036;12.112;2023-05-07T01:48:15;97712.63;;;10.95;93.58
21096;BME280;10706;49.036;12.112;2023-05-07T01:50:42;97712.53;;;10.90;92.89
21096;BME280;10706;49.036;12.112;2023-05-07T01:53:08;97708.03;;;10.91;93.29
21096;BME280;10706;49.036;12.112;2023-05-07T01:55:34;97720.78;;;10.88;93.69
21096;BME280;10706;49.036;12.112;2023-05-07T01:58:02;97714.41;;;10.89;93.71
21096;BME280;10706;49.036;12.112;2023-05-07T02:00:28;97727.94;;;11.00;92.65
21096;BME280;10706;49.036;12.112;2023-05-07T02:02:54;97726.00;;;11.24;92.67
21096;BME280;10706;49.036;12.112;2023-05-07T02:05:20;97711.19;;;11.33;91.27
21096;BME280;10706;49.036;12.112;2023-05-07T02:07:46;97712.72;;;11.29;91.33
21096;BME280;10706;49.036;12.112;2023-05-07T02:10:12;97716.19;;;11.29;90.29
21096;BME280;10706;49.036;12.112;2023-05-07T02:12:37;97718.94;;;11.18;90.99
21096;BME280;10706;49.036;12.112;2023-05-07T02:15:03;97721.06;;;11.33;90.70
21096;BME280;10706;49.036;12.112;2023-05-07T02:17:29;97729.22;;;11.26;90.89
21096;BME280;10706;49.036;12.112;2023-05-07T02:19:57;97726.66;;;11.31;90.98
21096;BME280;10706;49.036;12.112;2023-05-07T02:22:23;97722.03;;;11.26;91.15
21096;BME280;10706;49.036;12.112;2023-05-07T02:24:49;97721.94;;;11.21;90.95
21096;BME280;10706;49.036;12.112;2023-05-07T02:27:15;97724.16;;;11.24;91.12
21096;BME280;10706;49.036;12.112;2023-05-07T02:29:40;97717.63;;;11.20;90.97
21096;BME280;10706;49.036;12.112;2023-05-07T02:32:06;97723.81;;;11.21;90.95
21096;BME280;10706;49.036;12.112;2023-05-07T02:34:32;97728.63;;;11.07;91.28
21096;BME280;10706;49.036;12.112;2023-05-07T02:36:57;97721.03;;;11.16;92.05
21096;BME280;10706;49.036;12.112;2023-05-07T02:39:23;97714.00;;;10.98;92.47
21096;BME280;10706;49.036;12.112;2023-05-07T02:41:49;97712.69;;;10.83;92.21
21096;BME280;10706;49.036;12.112;2023-05-07T02:44:15;97712.00;;;10.76;92.58
21096;BME280;10706;49.036;12.112;2023-05-07T02:46:40;97709.78;;;10.85;93.31
21096;BME280;10706;49.036;12.112;2023-05-07T02:49:06;97703.59;;;10.84;92.85
21096;BME280;10706;49.036;12.112;2023-05-07T02:51:32;97709.19;;;10.83;92.99
21096;BME280;10706;49.036;12.112;2023-05-07T02:53:58;97706.28;;;10.84;92.93
21096;BME280;10706;49.036;12.112;2023-05-07T02:56:26;97704.19;;;10.86;92.53
21096;BME280;10706;49.036;12.112;2023-05-07T02:58:51;97699.22;;;10.78;93.43
21096;BME280;10706;49.036;12.112;2023-05-07T03:01:17;97694.28;;;10.70;93.06
21096;BME280;10706;49.036;12.112;2023-05-07T03:03:44;97704.00;;;10.76;93.59
21096;BME280;10706;49.036;12.112;2023-05-07T03:06:10;97702.94;;;10.77;93.63
21096;BME280;10706;49.036;12.112;2023-05-07T03:08:36;97703.53;;;10.67;93.19
21096;BME280;10706;49.036;12.112;2023-05-07T03:11:02;97693.44;;;10.69;93.40
21096;BME280;10706;49.036;12.112;2023-05-07T03:13:28;97702.84;;;10.72;93.65
21096;BME280;10706;49.036;12.112;2023-05-07T03:15:53;97694.84;;;10.72;93.59
21096;BME280;10706;49.036;12.112;2023-05-07T03:18:19;97700.88;;;10.67;93.52
21096;BME280;10706;49.036;12.112;2023-05-07T03:20:45;97705.41;;;10.67;93.84
21096;BME280;10706;49.036;12.112;2023-05-07T03:23:11;97697.53;;;10.60;93.98
21096;BME280;10706;49.036;12.112;2023-05-07T03:25:37;97697.78;;;10.59;93.90
21096;BME280;10706;49.036;12.112;2023-05-07T03:28:03;97702.28;;;10.58;93.51
21096;BME280;10706;49.036;12.112;2023-05-07T03:30:29;97697.78;;;10.59;94.13
21096;BME280;10706;49.036;12.112;2023-05-07T03:32:55;97694.84;;;10.60;93.46
21096;BME280;10706;49.036;12.112;2023-05-07T03:35:20;97692.91;;;10.56;93.60
21096;BME280;10706;49.036;12.112;2023-05-07T03:37:46;97692.78;;;10.62;93.82
21096;BME280;10706;49.036;12.112;2023-05-07T03:40:12;97695.44;;;10.62;93.25
21096;BME280;10706;49.036;12.112;2023-05-07T03:42:38;97696.16;;;10.58;93.32
21096;BME280;10706;49.036;12.112;2023-05-07T03:45:04;97700.91;;;10.56;94.17
21096;BME280;10706;49.036;12.112;2023-05-07T03:47:30;97708.81;;;10.50;94.61
21096;BME280;10706;49.036;12.112;2023-05-07T03:49:56;97714.94;;;10.63;94.38
21096;BME280;10706;49.036;12.112;2023-05-07T03:52:22;97713.72;;;10.82;91.98
21096;BME280;10706;49.036;12.112;2023-05-07T03:54:52;97710.94;;;10.77;93.56
21096;BME280;10706;49.036;12.112;2023-05-07T03:57:18;97714.41;;;10.89;92.60
21096;BME280;10706;49.036;12.112;2023-05-07T03:59:44;97715.81;;;10.80;93.48
21096;BME280;10706;49.036;12.112;2023-05-07T04:02:10;97718.31;;;10.70;93.04
21096;BME280;10706;49.036;12.112;2023-05-07T04:04:35;97728.13;;;10.81;92.43
21096;BME280;10706;49.036;12.112;2023-05-07T04:07:01;97726.84;;;10.84;92.76
21096;BME280;10706;49.036;12.112;2023-05-07T04:09:27;97732.41;;;10.82;92.48
21096;BME280;10706;49.036;12.112;2023-05-07T04:11:53;97741.16;;;10.78;93.08
21096;BME280;10706;49.036;12.112;2023-05-07T04:14:18;97738.13;;;10.74;93.22
21096;BME280;10706;49.036;12.112;2023-05-07T04:16:44;97732.91;;;10.67;93.79
21096;BME280;10706;49.036;12.112;2023-05-07T04:19:10;97737.34;;;10.74;93.50
21096;BME280;10706;49.036;12.112;2023-05-07T04:21:36;97739.41;;;10.83;92.12
21096;BME280;10706;49.036;12.112;2023-05-07T04:24:03;97735.88;;;10.95;91.90
21096;BME280;10706;49.036;12.112;2023-05-07T04:26:29;97741.34;;;10.88;92.61
21096;BME280;10706;49.036;12.112;2023-05-07T04:28:55;97740.53;;;10.87;92.08
21096;BME280;10706;49.036;12.112;2023-05-07T04:31:22;97744.75;;;10.83;92.71
21096;BME280;10706;49.036;12.112;2023-05-07T04:33:47;97742.13;;;11.00;91.30
21096;BME280;10706;49.036;12.112;2023-05-07T04:36:13;97742.50;;;10.92;92.35
21096;BME280;10706;49.036;12.112;2023-05-07T04:38:39;97747.94;;;10.97;91.82
21096;BME280;10706;49.036;12.112;2023-05-07T04:41:06;97743.84;;;11.06;91.31
21096;BME280;10706;49.036;12.112;2023-05-07T04:43:32;97737.72;;;10.94;92.61
21096;BME280;10706;49.036;12.112;2023-05-07T04:45:58;97739.94;;;10.97;92.05
21096;BME280;10706;49.036;12.112;2023-05-07T04:48:24;97742.69;;;11.02;91.59
21096;BME280;10706;49.036;12.112;2023-05-07T04:50:50;97736.41;;;11.08;91.80
21096;BME280;10706;49.036;12.112;2023-05-07T04:53:17;97747.44;;;11.12;92.41
21096;BME280;10706;49.036;12.112;2023-05-07T04:55:43;97756.69;;;11.21;91.68
21096;BME280;10706;49.036;12.112;2023-05-07T04:58:10;97747.56;;;11.34;91.57
21096;BME280;10706;49.036;12.112;2023-05-07T05:00:37;97746.72;;;11.62;89.50
21096;BME280;10706;49.036;12.112;2023-05-07T05:03:02;97749.66;;;11.78;88.67
21096;BME280;10706;49.036;12.112;2023-05-07T05:05:28;97763.63;;;11.97;87.27
21096;BME280;10706;49.036;12.112;2023-05-07T05:07:54;97754.59;;;12.20;86.88
21096;BME280;10706;49.036;12.112;2023-05-07T05:10:21;97759.25;;;12.24;86.97
21096;BME280;10706;49.036;12.112;2023-05-07T05:12:47;97768.25;;;12.35;86.56
21096;BME280;10706;49.036;12.112;2023-05-07T05:15:13;97762.19;;;12.62;85.71
21096;BME280;10706;49.036;12.112;2023-05-07T05:17:39;97772.72;;;12.91;83.39
21096;BME280;10706;49.036;12.112;2023-05-07T05:20:06;97772.72;;;13.13;82.26
21096;BME280;10706;49.036;12.112;2023-05-07T05:22:32;97772.91;;;13.06;81.87
21096;BME280;10706;49.036;12.112;2023-05-07T05:24:58;97766.94;;;12.99;82.67
21096;BME280;10706;49.036;12.112;2023-05-07T05:27:24;97782.75;;;13.00;82.92
21096;BME280;10706;49.036;12.112;2023-05-07T05:29:50;97782.25;;;13.03;83.08
21096;BME280;10706;49.036;12.112;2023-05-07T05:32:15;97777.56;;;13.38;81.66
21096;BME280;10706;49.036;12.112;2023-05-07T05:34:41;97778.25;;;13.06;82.46
21096;BME280;10706;49.036;12.112;2023-05-07T05:37:07;97777.00;;;12.70;83.81
21096;BME280;10706;49.036;12.112;2023-05-07T05:39:33;97779.00;;;12.79;83.77
21096;BME280;10706;49.036;12.112;2023-05-07T05:41:59;97782.72;;;12.95;83.21
21096;BME280;10706;49.036;12.112;2023-05-07T05:44:25;97776.34;;;13.23;81.99
21096;BME280;10706;49.036;12.112;2023-05-07T05:46:51;97774.22;;;13.26;81.59
21096;BME280;10706;49.036;12.112;2023-05-07T05:49:16;97773.44;;;13.52;80.62
21096;BME280;10706;49.036;12.112;2023-05-07T05:51:43;97765.63;;;13.78;78.41
21096;BME280;10706;49.036;12.112;2023-05-07T05:54:09;97767.66;;;13.66;79.59
21096;BME280;10706;49.036;12.112;2023-05-07T05:56:34;97773.16;;;13.81;79.16
21096;BME280;10706;49.036;12.112;2023-05-07T05:59:00;97777.47;;;13.82;78.44
21096;BME280;10706;49.036;12.112;2023-05-07T06:01:26;97774.78;;;13.82;78.18
21096;BME280;10706;49.036;12.112;2023-05-07T06:03:52;97775.78;;;13.71;78.18
21096;BME280;10706;49.036;12.112;2023-05-07T06:06:18;97776.88;;;13.75;78.72
21096;BME280;10706;49.036;12.112;2023-05-07T06:08:43;97781.25;;;13.86;78.23
21096;BME280;10706;49.036;12.112;2023-05-07T06:11:09;97785.16;;;14.00;79.27
21096;BME280;10706;49.036;12.112;2023-05-07T06:13:35;97785.22;;;14.11;79.29
21096;BME280;10706;49.036;12.112;2023-05-07T06:16:01;97783.34;;;14.11;77.51
21096;BME280;10706;49.036;12.112;2023-05-07T06:18:27;97784.22;;;14.22;77.61
21096;BME280;10706;49.036;12.112;2023-05-07T06:20:53;97791.53;;;14.32;78.19
21096;BME280;10706;49.036;12.112;2023-05-07T06:23:19;97790.34;;;14.50;76.54
21096;BME280;10706;49.036;12.112;2023-05-07T06:25:51;97792.31;;;14.60;77.02
21096;BME280;10706;49.036;12.112;2023-05-07T06:28:17;97802.13;;;14.81;77.14
21096;BME280;10706;49.036;12.112;2023-05-07T06:30:42;97805.16;;;15.05;76.83
21096;BME280;10706;49.036;12.112;2023-05-07T06:33:08;97806.34;;;15.30;73.51
21096;BME280;10706;49.036;12.112;2023-05-07T06:35:34;97813.78;;;15.02;73.91
21096;BME280;10706;49.036;12.112;2023-05-07T06:38:00;97807.69;;;15.22;74.01
21096;BME280;10706;49.036;12.112;2023-05-07T06:40:26;97811.75;;;15.30;73.94
21096;BME280;10706;49.036;12.112;2023-05-07T06:42:52;97815.53;;;15.44;73.12
21096;BME280;10706;49.036;12.112;2023-05-07T06:45:19;97811.28;;;15.64;72.90
21096;BME280;10706;49.036;12.112;2023-05-07T06:47:45;97814.84;;;16.31;69.66
21096;BME280;10706;49.036;12.112;2023-05-07T06:50:11;97811.06;;;16.52;68.90
21096;BME280;10706;49.036;12.112;2023-05-07T06:52:37;97806.72;;;16.87;67.28
21096;BME280;10706;49.036;12.112;2023-05-07T06:55:03;97817.69;;;17.12;65.14
21096;BME280;10706;49.036;12.112;2023-05-07T06:57:29;97821.81;;;16.99;66.92
21096;BME280;10706;49.036;12.112;2023-05-07T06:59:55;97824.91;;;17.26;66.82
21096;BME280;10706;49.036;12.112;2023-05-07T07:02:21;97824.25;;;16.85;66.94
21096;BME280;10706;49.036;12.112;2023-05-07T07:04:47;97819.44;;;16.61;66.61
21096;BME280;10706;49.036;12.112;2023-05-07T07:07:13;97813.78;;;16.58;68.59
21096;BME280;10706;49.036;12.112;2023-05-07T07:09:38;97817.81;;;16.35;69.06
21096;BME280;10706;49.036;12.112;2023-05-07T07:12:04;97813.25;;;16.35;69.18
21096;BME280;10706;49.036;12.112;2023-05-07T07:14:30;97810.81;;;16.54;70.48
21096;BME280;10706;49.036;12.112;2023-05-07T07:16:56;97818.06;;;16.84;69.98
21096;BME280;10706;49.036;12.112;2023-05-07T07:19:21;97817.47;;;16.98;68.00
21096;BME280;10706;49.036;12.112;2023-05-07T07:21:47;97819.41;;;16.71;67.86
21096;BME280;10706;49.036;12.112;2023-05-07T07:24:14;97821.81;;;16.94;67.62
21096;BME280;10706;49.036;12.112;2023-05-07T07:26:44;97818.78;;;17.10;67.69
21096;BME280;10706;49.036;12.112;2023-05-07T07:29:10;97815.31;;;17.00;67.38
21096;BME280;10706;49.036;12.112;2023-05-07T07:31:36;97810.38;;;17.22;66.68
21096;BME280;10706;49.036;12.112;2023-05-07T07:34:02;97817.69;;;17.12;66.20
21096;BME280;10706;49.036;12.112;2023-05-07T07:36:27;97813.38;;;17.16;67.81
21096;BME280;10706;49.036;12.112;2023-05-07T07:38:53;97821.84;;;17.54;64.65
21096;BME280;10706;49.036;12.112;2023-05-07T07:41:19;97828.28;;;17.58;64.42
21096;BME280;10706;49.036;12.112;2023-05-07T07:43:45;97820.19;;;17.58;64.78
21096;BME280;10706;49.036;12.112;2023-05-07T07:46:12;97825.50;;;17.18;65.10
21096;BME280;10706;49.036;12.112;2023-05-07T07:48:38;97818.19;;;17.19;66.14
21096;BME280;10706;49.036;12.112;2023-05-07T07:51:04;97826.13;;;17.55;65.95
21096;BME280;10706;49.036;12.112;2023-05-07T07:53:30;97817.41;;;17.68;64.13
21096;BME280;10706;49.036;12.112;2023-05-07T07:55:56;97826.66;;;17.57;63.99
21096;BME280;10706;49.036;12.112;2023-05-07T07:58:21;97822.66;;;17.49;65.13
21096;BME280;10706;49.036;12.112;2023-05-07T08:00:48;97810.94;;;17.69;65.12
21096;BME280;10706;49.036;12.112;2023-05-07T08:03:14;97811.81;;;18.04;64.74
21096;BME280;10706;49.036;12.112;2023-05-07T08:05:42;97805.69;;;18.27;64.90
21096;BME280;10706;49.036;12.112;2023-05-07T08:08:08;97808.38;;;18.86;62.85
21096;BME280;10706;49.036;12.112;2023-05-07T08:10:34;97811.38;;;19.09;62.13
21096;BME280;10706;49.036;12.112;2023-05-07T08:13:00;97806.94;;;19.18;60.34
21096;BME280;10706;49.036;12.112;2023-05-07T08:15:27;97808.66;;;19.33;59.51
21096;BME280;10706;49.036;12.112;2023-05-07T08:17:53;97807.78;;;18.94;59.12
21096;BME280;10706;49.036;12.112;2023-05-07T08:20:18;97808.72;;;18.79;62.13
21096;BME280;10706;49.036;12.112;2023-05-07T08:22:44;97809.25;;;18.23;62.34
21096;BME280;10706;49.036;12.112;2023-05-07T08:25:10;97814.50;;;18.38;61.83
21096;BME280;10706;49.036;12.112;2023-05-07T08:27:36;97815.50;;;18.48;61.31
21096;BME280;10706;49.036;12.112;2023-05-07T08:30:03;97826.56;;;18.51;62.11
21096;BME280;10706;49.036;12.112;2023-05-07T08:32:29;97829.59;;;18.74;60.86
21096;BME280;10706;49.036;12.112;2023-05-07T08:34:55;97830.91;;;18.81;61.13
21096;BME280;10706;49.036;12.112;2023-05-07T08:37:21;97832.81;;;18.76;60.79
21096;BME280;10706;49.036;12.112;2023-05-07T08:39:46;97834.47;;;18.42;61.47
21096;BME280;10706;49.036;12.112;2023-05-07T08:42:13;97835.41;;;18.91;62.15
21096;BME280;10706;49.036;12.112;2023-05-07T08:44:40;97833.81;;;18.90;60.04
21096;BME280;10706;49.036;12.112;2023-05-07T08:47:09;97837.59;;;18.89;60.61
21096;BME280;10706;49.036;12.112;2023-05-07T08:49:35;97840.00;;;18.91;59.59
21096;BME280;10706;49.036;12.112;2023-05-07T08:52:02;97838.78;;;18.73;59.48
21096;BME280;10706;49.036;12.112;2023-05-07T08:54:28;97839.78;;;18.87;60.19
21096;BME280;10706;49.036;12.112;2023-05-07T08:56:55;97834.75;;;19.23;61.01
21096;BME280;10706;49.036;12.112;2023-05-07T08:59:21;97831.91;;;19.15;58.62
21096;BME280;10706;49.036;12.112;2023-05-07T09:01:47;97831.00;;;19.19;59.52
21096;BME280;10706;49.036;12.112;2023-05-07T09:04:12;97844.63;;;18.90;60.33
21096;BME280;10706;49.036;12.112;2023-05-07T09:06:39;97843.09;;;19.27;58.38
21096;BME280;10706;49.036;12.112;2023-05-07T09:09:07;97842.16;;;19.37;58.42
21096;BME280;10706;49.036;12.112;2023-05-07T09:11:33;97842.75;;;19.58;58.51
21096;BME280;10706;49.036;12.112;2023-05-07T09:14:00;97841.88;;;19.81;57.06
21096;BME280;10706;49.036;12.112;2023-05-07T09:16:29;97842.25;;;19.94;58.49
21096;BME280;10706;49.036;12.112;2023-05-07T09:18:59;97837.47;;;20.24;58.55
21096;BME280;10706;49.036;12.112;2023-05-07T09:21:28;97828.31;;;20.52;57.08
21096;BME280;10706;49.036;12.112;2023-05-07T09:23:56;97829.31;;;20.43;55.64
21096;BME280;10706;49.036;12.112;2023-05-07T09:26:23;97830.28;;;20.66;56.58
21096;BME280;10706;49.036;12.112;2023-05-07T09:28:49;97828.56;;;20.70;55.85
21096;BME280;10706;49.036;12.112;2023-05-07T09:31:14;97824.97;;;20.88;55.65
21096;BME280;10706;49.036;12.112;2023-05-07T09:33:43;97834.88;;;21.12;57.36
21096;BME280;10706;49.036;12.112;2023-05-07T09:36:10;97839.66;;;21.43;53.16
21096;BME280;10706;49.036;12.112;2023-05-07T09:38:37;97829.31;;;21.31;52.66
21096;BME280;10706;49.036;12.112;2023-05-07T09:41:10;97833.22;;;21.39;51.36
21096;BME280;10706;49.036;12.112;2023-05-07T09:43:39;97832.66;;;21.14;55.15
21096;BME280;10706;49.036;12.112;2023-05-07T09:46:13;97823.41;;;20.54;55.45
21096;BME280;10706;49.036;12.112;2023-05-07T09:48:42;97821.75;;;20.39;54.80
21096;BME280;10706;49.036;12.112;2023-05-07T09:51:30;97828.31;;;20.19;56.68
21096;BME280;10706;49.036;12.112;2023-05-07T09:54:00;97818.56;;;20.84;55.99
21096;BME280;10706;49.036;12.112;2023-05-07T09:56:30;97821.44;;;21.43;55.46
21096;BME280;10706;49.036;12.112;2023-05-07T09:58:59;97815.44;;;21.46;52.18
21096;BME280;10706;49.036;12.112;2023-05-07T10:01:27;97814.03;;;21.21;55.04
21096;BME280;10706;49.036;12.112;2023-05-07T10:03:53;97823.78;;;21.50;52.29
21096;BME280;10706;49.036;12.112;2023-05-07T10:06:20;97821.88;;;21.50;54.33
21096;BME280;10706;49.036;12.112;2023-05-07T10:08:48;97816.88;;;21.80;54.27
21096;BME280;10706;49.036;12.112;2023-05-07T10:11:15;97822.25;;;21.94;52.34
21096;BME280;10706;49.036;12.112;2023-05-07T10:13:42;97820.56;;;21.48;53.64
21096;BME280;10706;49.036;12.112;2023-05-07T10:16:09;97824.88;;;21.49;53.94
21096;BME280;10706;49.036;12.112;2023-05-07T10:18:34;97821.56;;;21.52;53.01
21096;BME280;10706;49.036;12.112;2023-05-07T10:24:10;97816.44;;;21.09;53.72
21096;BME280;10706;49.036;12.112;2023-05-07T10:26:47;97816.75;;;21.21;53.98
21096;BME280;10706;49.036;12.112;2023-05-07T10:29:37;97814.03;;;21.21;54.53
21096;BME280;10706;49.036;12.112;2023-05-07T10:32:40;97821.34;;;20.79;55.63
21096;BME280;10706;49.036;12.112;2023-05-07T10:35:20;97821.25;;;20.84;54.11
21096;BME280;10706;49.036;12.112;2023-05-07T10:37:48;97816.13;;;20.96;53.66
21096;BME280;10706;49.036;12.112;2023-05-07T10:40:14;97804.84;;;20.75;55.27
21096;BME280;10706;49.036;12.112;2023-05-07T10:42:57;97811.50;;;20.83;55.97
21096;BME280;10706;49.036;12.112;2023-05-07T10:45:25;97807.78;;;20.79;58.52
21096;BME280;10706;49.036;12.112;2023-05-07T10:48:17;97806.97;;;20.65;55.70
21096;BME280;10706;49.036;12.112;2023-05-07T10:50:44;97801.94;;;20.72;55.92
21096;BME280;10706;49.036;12.112;2023-05-07T10:55:49;97797.41;;;21.23;56.48
21096;BME280;10706;49.036;12.112;2023-05-07T11:00:48;97793.72;;;21.32;55.53
21096;BME280;10706;49.036;12.112;2023-05-07T11:03:14;97790.09;;;20.95;54.23
21096;BME280;10706;49.036;12.112;2023-05-07T11:05:42;97797.41;;;21.23;57.51
21096;BME280;10706;49.036;12.112;2023-05-07T11:08:09;97796.63;;;21.50;56.17
21096;BME280;10706;49.036;12.112;2023-05-07T11:10:52;97790.38;;;21.86;54.81
21096;BME280;10706;49.036;12.112;2023-05-07T11:13:48;97781.22;;;21.82;52.60
21096;BME280;10706;49.036;12.112;2023-05-07T11:18:55;97783.63;;;21.61;58.14
21096;BME280;10706;49.036;12.112;2023-05-07T11:21:42;97785.25;;;22.07;50.83
21096;BME280;10706;49.036;12.112;2023-05-07T11:24:10;97782.22;;;21.86;52.50
21096;BME280;10706;49.036;12.112;2023-05-07T11:29:18;97787.34;;;21.37;52.24
21096;BME280;10706;49.036;12.112;2023-05-07T11:31:48;97786.75;;;21.26;53.65
21096;BME280;10706;49.036;12.112;2023-05-07T11:34:14;97778.41;;;21.87;54.51
21096;BME280;10706;49.036;12.112;2023-05-07T11:36:43;97778.78;;;22.39;54.63
21096;BME280;10706;49.036;12.112;2023-05-07T11:39:32;97781.22;;;22.49;50.70
21096;BME280;10706;49.036;12.112;2023-05-07T11:42:01;97785.69;;;22.23;50.10
21096;BME280;10706;49.036;12.112;2023-05-07T11:44:44;97786.31;;;22.20;50.69
21096;BME280;10706;49.036;12.112;2023-05-07T11:47:16;97781.66;;;22.43;49.62
21096;BME280;10706;49.036;12.112;2023-05-07T11:49:42;97783.47;;;22.02;49.89
21096;BME280;10706;49.036;12.112;2023-05-07T11:52:08;97780.50;;;22.66;48.27
21096;BME280;10706;49.036;12.112;2023-05-07T11:54:37;97782.81;;;23.13;46.87
21096;BME280;10706;49.036;12.112;2023-05-07T11:57:03;97781.75;;;23.66;46.52
21096;BME280;10706;49.036;12.112;2023-05-07T11:59:29;97776.69;;;23.82;44.52
21096;BME280;10706;49.036;12.112;2023-05-07T12:01:58;97777.00;;;23.90;44.58
21096;BME280;10706;49.036;12.112;2023-05-07T12:04:24;97790.38;;;24.47;43.86
21096;BME280;10706;49.036;12.112;2023-05-07T12:06:54;97784.88;;;24.73;42.16
21096;BME280;10706;49.036;12.112;2023-05-07T12:09:21;97783.38;;;25.23;41.67
21096;BME280;10706;49.036;12.112;2023-05-07T12:11:47;97785.34;;;26.28;40.29
21096;BME280;10706;49.036;12.112;2023-05-07T12:14:13;97780.19;;;26.60;37.83
21096;BME280;10706;49.036;12.112;2023-05-07T12:16:41;97787.09;;;26.45;37.92
21096;BME280;10706;49.036;12.112;2023-05-07T12:19:08;97789.47;;;26.67;37.23
21096;BME280;10706;49.036;12.112;2023-05-07T12:21:38;97775.44;;;26.35;36.71
21096;BME280;10706;49.036;12.112;2023-05-07T12:24:05;97774.28;;;25.82;38.20
21096;BME280;10706;49.036;12.112;2023-05-07T12:26:31;97780.00;;;25.17;39.59
21096;BME280;10706;49.036;12.112;2023-05-07T12:28:57;97774.69;;;26.14;40.38
21096;BME280;10706;49.036;12.112;2023-05-07T12:31:26;97775.41;;;26.69;37.18
21096;BME280;10706;49.036;12.112;2023-05-07T12:33:52;97774.88;;;27.12;35.94
21096;BME280;10706;49.036;12.112;2023-05-07T12:36:18;97773.03;;;26.92;35.01
21096;BME280;10706;49.036;12.112;2023-05-07T12:38:44;97770.91;;;26.52;36.96
21096;BME280;10706;49.036;12.112;2023-05-07T12:41:10;97765.63;;;27.29;35.07
21096;BME280;10706;49.036;12.112;2023-05-07T12:43:38;97775.88;;;27.98;34.04
21096;BME280;10706;49.036;12.112;2023-05-07T12:46:06;97769.72;;;28.17;34.16
21096;BME280;10706;49.036;12.112;2023-05-07T12:48:32;97768.38;;;28.39;33.99
21096;BME280;10706;49.036;12.112;2023-05-07T12:51:00;97763.25;;;28.85;33.39
21096;BME280;10706;49.036;12.112;2023-05-07T12:53:28;97755.47;;;28.71;32.45
21096;BME280;10706;49.036;12.112;2023-05-07T12:55:57;97754.56;;;28.07;35.33
21096;BME280;10706;49.036;12.112;2023-05-07T12:58:30;97750.50;;;28.01;36.28
21096;BME280;10706;49.036;12.112;2023-05-07T13:01:01;97746.78;;;29.01;33.19
21096;BME280;10706;49.036;12.112;2023-05-07T13:03:33;97746.69;;;28.05;33.20